sensor_id;sensor_type;location;lat;lon;timestamp;P1;durP1;ratioP1;P2;durP2;ratioP2
3573;SDS011;1801;51.050;6.246;2023-05-09T00:02:20;57.60;;;25.50;;
3573;SDS011;1801;51.050;6.246;2023-05-09T00:04:46;67.83;;;25.80;;
3573;SDS011;1801;51.050;6.246;2023-05-09T00:07:11;57.63;;;23.77;;
3573;SDS011;1801;51.050;6.246;2023-05-09T00:09:36;62.03;;;26.87;;
3573;SDS011;1801;51.050;6.246;2023-05-09T00:12:01;52.00;;;24.90;;
3573;SDS011;1801;51.050;6.246;2023-05-09T00:14:28;67.43;;;26.30;;
3573;SDS011;1801;51.050;6.246;2023-05-09T00:16:53;62.73;;;25.20;;
3573;SDS011;1801;51.050;6.246;2023-05-09T00:19:18;58.50;;;26.70;;
3573;SDS011;1801;51.050;6.246;2023-05-09T00:21:44;54.90;;;25.40;;
3573;SDS011;1801;51.050;6.246;2023-05-09T00:24:09;62.17;;;25.00;;
3573;SDS011;1801;51.050;6.246;2023-05-09T00:26:34;62.43;;;24.33;;
3573;SDS011;1801;51.050;6.246;2023-05-09T00:29:00;61.10;;;27.07;;
3573;SDS011;1801;51.050;6.246;2023-05-09T00:31:25;60.33;;;24.57;;
3573;SDS011;1801;51.050;6.246;2023-05-09T00:33:52;56.93;;;25.30;;
3573;SDS011;1801;51.050;6.246;2023-05-09T00:36:17;60.53;;;24.93;;
3573;SDS011;1801;51.050;6.246;2023-05-09T00:38:42;53.80;;;22.87;;
3573;SDS011;1801;51.050;6.246;2023-05-09T00:41:07;59.83;;;25.77;;
3573;SDS011;1801;51.050;6.246;2023-05-09T00:43:33;63.23;;;26.03;;
3573;SDS011;1801;51.050;6.246;2023-05-09T00:45:58;57.00;;;23.90;;
3573;SDS011;1801;51.050;6.246;2023-05-09T00:48:23;68.33;;;25.30;;
3573;SDS011;1801;51.050;6.246;2023-05-09T00:50:48;56.77;;;24.17;;
3573;SDS011;1801;51.050;6.246;2023-05-09T00:53:17;57.00;;;24.33;;
3573;SDS011;1801;51.050;6.246;2023-05-09T00:55:42;56.20;;;23.63;;
3573;SDS011;1801;51.050;6.246;2023-05-09T00:58:07;60.60;;;25.20;;
3573;SDS011;1801;51.050;6.246;2023-05-09T01:00:33;58.13;;;24.90;;
3573;SDS011;1801;51.050;6.246;2023-05-09T01:02:58;62.17;;;24.13;;
3573;SDS011;1801;51.050;6.246;2023-05-09T01:05:28;56.73;;;24.70;;
3573;SDS011;1801;51.050;6.246;2023-05-09T01:18:42;60.63;;;24.03;;
3573;SDS011;1801;51.050;6.246;2023-05-09T01:21:15;53.13;;;23.37;;
3573;SDS011;1801;51.050;6.246;2023-05-09T01:31:15;59.63;;;24.90;;
3573;SDS011;1801;51.050;6.246;2023-05-09T01:33:41;60.53;;;24.80;;
3573;SDS011;1801;51.050;6.246;2023-05-09T01:36:11;64.30;;;24.20;;
3573;SDS011;1801;51.050;6.246;2023-05-09T01:38:36;65.87;;;24.73;;
3573;SDS011;1801;51.050;6.246;2023-05-09T01:41:02;58.83;;;23.77;;
3573;SDS011;1801;51.050;6.246;2023-05-09T01:43:29;53.13;;;24.77;;
3573;SDS011;1801;51.050;6.246;2023-05-09T01:45:56;59.83;;;25.10;;
3573;SDS011;1801;51.050;6.246;2023-05-09T01:48:23;64.60;;;24.03;;
3573;SDS011;1801;51.050;6.246;2023-05-09T01:50:50;68.93;;;23.57;;
3573;SDS011;1801;51.050;6.246;2023-05-09T01:53:16;59.30;;;24.33;;
3573;SDS011;1801;51.050;6.246;2023-05-09T01:55:41;53.87;;;23.80;;
3573;SDS011;1801;51.050;6.246;2023-05-09T01:58:08;66.73;;;25.93;;
3573;SDS011;1801;51.050;6.246;2023-05-09T02:00:33;56.93;;;24.70;;
3573;SDS011;1801;51.050;6.246;2023-05-09T02:02:59;62.63;;;23.57;;
3573;SDS011;1801;51.050;6.246;2023-05-09T02:05:25;57.20;;;24.50;;
3573;SDS011;1801;51.050;6.246;2023-05-09T02:07:51;61.77;;;24.43;;
3573;SDS011;1801;51.050;6.246;2023-05-09T02:10:17;53.87;;;23.10;;
3573;SDS011;1801;51.050;6.246;2023-05-09T02:12:44;57.83;;;24.40;;
3573;SDS011;1801;51.050;6.246;2023-05-09T02:15:10;57.93;;;24.60;;
3573;SDS011;1801;51.050;6.246;2023-05-09T02:17:35;57.63;;;23.80;;
3573;SDS011;1801;51.050;6.246;2023-05-09T02:20:01;62.50;;;26.20;;
3573;SDS011;1801;51.050;6.246;2023-05-09T02:22:26;54.30;;;21.00;;
3573;SDS011;1801;51.050;6.246;2023-05-09T02:24:51;71.83;;;25.10;;
3573;SDS011;1801;51.050;6.246;2023-05-09T02:27:17;52.80;;;23.53;;
3573;SDS011;1801;51.050;6.246;2023-05-09T02:29:43;59.07;;;24.60;;
3573;SDS011;1801;51.050;6.246;2023-05-09T02:32:11;55.30;;;24.37;;
3573;SDS011;1801;51.050;6.246;2023-05-09T02:34:37;64.33;;;23.87;;
3573;SDS011;1801;51.050;6.246;2023-05-09T02:37:03;54.80;;;24.30;;
3573;SDS011;1801;51.050;6.246;2023-05-09T02:39:28;48.83;;;23.23;;
3573;SDS011;1801;51.050;6.246;2023-05-09T02:41:54;49.10;;;24.17;;
3573;SDS011;1801;51.050;6.246;2023-05-09T02:44:19;56.63;;;24.27;;
3573;SDS011;1801;51.050;6.246;2023-05-09T02:46:44;51.13;;;23.63;;
3573;SDS011;1801;51.050;6.246;2023-05-09T02:49:09;60.30;;;24.23;;
3573;SDS011;1801;51.050;6.246;2023-05-09T02:51:35;56.40;;;24.73;;
3573;SDS011;1801;51.050;6.246;2023-05-09T02:54:00;55.87;;;23.10;;
3573;SDS011;1801;51.050;6.246;2023-05-09T02:56:25;61.00;;;24.77;;
3573;SDS011;1801;51.050;6.246;2023-05-09T02:58:50;55.57;;;23.23;;
3573;SDS011;1801;51.050;6.246;2023-05-09T03:01:16;61.13;;;24.47;;
3573;SDS011;1801;51.050;6.246;2023-05-09T03:03:42;61.07;;;25.00;;
3573;SDS011;1801;51.050;6.246;2023-05-09T03:06:07;54.37;;;25.30;;
3573;SDS011;1801;51.050;6.246;2023-05-09T03:08:33;51.90;;;24.20;;
3573;SDS011;1801;51.050;6.246;2023-05-09T03:10:58;53.43;;;24.30;;
3573;SDS011;1801;51.050;6.246;2023-05-09T03:13:23;61.97;;;24.23;;
3573;SDS011;1801;51.050;6.246;2023-05-09T03:15:48;53.90;;;24.30;;
3573;SDS011;1801;51.050;6.246;2023-05-09T03:18:13;69.50;;;25.07;;
3573;SDS011;1801;51.050;6.246;2023-05-09T03:20:39;57.70;;;23.63;;
3573;SDS011;1801;51.050;6.246;2023-05-09T03:23:04;55.03;;;22.50;;
3573;SDS011;1801;51.050;6.246;2023-05-09T03:25:29;52.00;;;22.80;;
3573;SDS011;1801;51.050;6.246;2023-05-09T03:27:54;51.17;;;22.63;;
3573;SDS011;1801;51.050;6.246;2023-05-09T03:30:20;54.57;;;23.40;;
3573;SDS011;1801;51.050;6.246;2023-05-09T03:32:45;52.37;;;22.63;;
3573;SDS011;1801;51.050;6.246;2023-05-09T03:35:10;53.43;;;24.10;;
3573;SDS011;1801;51.050;6.246;2023-05-09T03:37:35;54.23;;;23.90;;
3573;SDS011;1801;51.050;6.246;2023-05-09T03:40:01;54.67;;;25.00;;
3573;SDS011;1801;51.050;6.246;2023-05-09T03:42:26;55.03;;;24.57;;
3573;SDS011;1801;51.050;6.246;2023-05-09T03:44:51;61.33;;;24.27;;
3573;SDS011;1801;51.050;6.246;2023-05-09T03:47:16;62.23;;;24.50;;
3573;SDS011;1801;51.050;6.246;2023-05-09T03:49:42;57.77;;;24.30;;
3573;SDS011;1801;51.050;6.246;2023-05-09T03:52:07;49.97;;;21.50;;
3573;SDS011;1801;51.050;6.246;2023-05-09T03:54:32;58.13;;;24.60;;
3573;SDS011;1801;51.050;6.246;2023-05-09T03:56:57;59.50;;;25.53;;
3573;SDS011;1801;51.050;6.246;2023-05-09T03:59:23;58.27;;;24.80;;
3573;SDS011;1801;51.050;6.246;2023-05-09T04:01:48;55.80;;;24.60;;
3573;SDS011;1801;51.050;6.246;2023-05-09T04:04:13;61.30;;;24.43;;
3573;SDS011;1801;51.050;6.246;2023-05-09T04:06:38;58.33;;;24.77;;
3573;SDS011;1801;51.050;6.246;2023-05-09T04:09:03;54.30;;;26.20;;
3573;SDS011;1801;51.050;6.246;2023-05-09T04:11:29;62.10;;;26.67;;
3573;SDS011;1801;51.050;6.246;2023-05-09T04:13:54;58.27;;;24.80;;
3573;SDS011;1801;51.050;6.246;2023-05-09T04:16:19;66.13;;;26.33;;
3573;SDS011;1801;51.050;6.246;2023-05-09T04:18:45;60.10;;;25.40;;
3573;SDS011;1801;51.050;6.246;2023-05-09T04:21:10;62.00;;;26.50;;
3573;SDS011;1801;51.050;6.246;2023-05-09T04:23:35;67.73;;;25.87;;
3573;SDS011;1801;51.050;6.246;2023-05-09T04:26:00;69.30;;;27.57;;
3573;SDS011;1801;51.050;6.246;2023-05-09T04:28:25;68.97;;;27.23;;
3573;SDS011;1801;51.050;6.246;2023-05-09T04:30:51;66.03;;;28.37;;
3573;SDS011;1801;51.050;6.246;2023-05-09T04:33:16;72.50;;;26.30;;
3573;SDS011;1801;51.050;6.246;2023-05-09T04:35:41;71.13;;;29.57;;
3573;SDS011;1801;51.050;6.246;2023-05-09T04:38:06;68.97;;;27.77;;
3573;SDS011;1801;51.050;6.246;2023-05-09T04:40:31;73.93;;;29.70;;
3573;SDS011;1801;51.050;6.246;2023-05-09T04:42:57;77.90;;;29.37;;
3573;SDS011;1801;51.050;6.246;2023-05-09T04:45:22;71.17;;;29.83;;
3573;SDS011;1801;51.050;6.246;2023-05-09T04:47:48;72.10;;;29.70;;
3573;SDS011;1801;51.050;6.246;2023-05-09T04:50:13;66.83;;;29.90;;
3573;SDS011;1801;51.050;6.246;2023-05-09T04:52:38;74.00;;;28.10;;
3573;SDS011;1801;51.050;6.246;2023-05-09T04:55:03;73.33;;;29.13;;
3573;SDS011;1801;51.050;6.246;2023-05-09T04:57:28;64.47;;;28.40;;
3573;SDS011;1801;51.050;6.246;2023-05-09T04:59:54;67.00;;;27.50;;
3573;SDS011;1801;51.050;6.246;2023-05-09T05:02:19;67.67;;;28.20;;
3573;SDS011;1801;51.050;6.246;2023-05-09T05:04:45;64.80;;;26.37;;
3573;SDS011;1801;51.050;6.246;2023-05-09T05:07:10;60.20;;;24.50;;
3573;SDS011;1801;51.050;6.246;2023-05-09T05:09:35;75.07;;;27.90;;
3573;SDS011;1801;51.050;6.246;2023-05-09T05:12:00;63.83;;;26.30;;
3573;SDS011;1801;51.050;6.246;2023-05-09T05:14:26;67.03;;;28.00;;
3573;SDS011;1801;51.050;6.246;2023-05-09T05:16:51;67.53;;;27.27;;
3573;SDS011;1801;51.050;6.246;2023-05-09T05:19:16;64.40;;;26.10;;
3573;SDS011;1801;51.050;6.246;2023-05-09T05:21:42;72.13;;;28.30;;
3573;SDS011;1801;51.050;6.246;2023-05-09T05:24:07;63.27;;;25.80;;
3573;SDS011;1801;51.050;6.246;2023-05-09T05:26:32;61.37;;;26.97;;
3573;SDS011;1801;51.050;6.246;2023-05-09T05:28:57;68.20;;;27.57;;
3573;SDS011;1801;51.050;6.246;2023-05-09T05:31:23;60.53;;;27.30;;
3573;SDS011;1801;51.050;6.246;2023-05-09T05:33:48;59.63;;;25.70;;
3573;SDS011;1801;51.050;6.246;2023-05-09T05:36:13;72.40;;;29.50;;
3573;SDS011;1801;51.050;6.246;2023-05-09T05:38:38;68.50;;;28.17;;
3573;SDS011;1801;51.050;6.246;2023-05-09T05:41:04;71.77;;;26.93;;
3573;SDS011;1801;51.050;6.246;2023-05-09T05:43:29;61.37;;;26.20;;
3573;SDS011;1801;51.050;6.246;2023-05-09T05:45:54;65.63;;;28.63;;
3573;SDS011;1801;51.050;6.246;2023-05-09T05:48:19;73.93;;;27.77;;
3573;SDS011;1801;51.050;6.246;2023-05-09T05:50:45;76.00;;;29.23;;
3573;SDS011;1801;51.050;6.246;2023-05-09T05:53:10;75.00;;;28.50;;
3573;SDS011;1801;51.050;6.246;2023-05-09T05:55:35;76.90;;;29.23;;
3573;SDS011;1801;51.050;6.246;2023-05-09T05:58:00;66.73;;;29.77;;
3573;SDS011;1801;51.050;6.246;2023-05-09T06:00:25;67.83;;;29.30;;
3573;SDS011;1801;51.050;6.246;2023-05-09T06:02:51;77.87;;;28.53;;
3573;SDS011;1801;51.050;6.246;2023-05-09T06:05:16;73.33;;;32.63;;
3573;SDS011;1801;51.050;6.246;2023-05-09T06:07:41;73.00;;;30.07;;
3573;SDS011;1801;51.050;6.246;2023-05-09T06:10:08;78.63;;;28.33;;
3573;SDS011;1801;51.050;6.246;2023-05-09T06:12:33;62.47;;;26.97;;
3573;SDS011;1801;51.050;6.246;2023-05-09T06:14:58;68.63;;;28.80;;
3573;SDS011;1801;51.050;6.246;2023-05-09T06:17:24;73.60;;;27.13;;
3573;SDS011;1801;51.050;6.246;2023-05-09T06:19:49;77.63;;;30.80;;
3573;SDS011;1801;51.050;6.246;2023-05-09T06:22:14;73.60;;;29.53;;
3573;SDS011;1801;51.050;6.246;2023-05-09T06:24:40;85.17;;;30.67;;
3573;SDS011;1801;51.050;6.246;2023-05-09T06:27:05;77.17;;;31.77;;
3573;SDS011;1801;51.050;6.246;2023-05-09T06:29:30;88.43;;;34.97;;
3573;SDS011;1801;51.050;6.246;2023-05-09T06:31:55;68.97;;;31.77;;
3573;SDS011;1801;51.050;6.246;2023-05-09T06:34:21;86.77;;;31.93;;
3573;SDS011;1801;51.050;6.246;2023-05-09T06:36:46;75.80;;;30.97;;
3573;SDS011;1801;51.050;6.246;2023-05-09T06:39:11;64.73;;;27.00;;
3573;SDS011;1801;51.050;6.246;2023-05-09T06:41:36;63.37;;;28.33;;
3573;SDS011;1801;51.050;6.246;2023-05-09T06:44:02;68.23;;;28.70;;
3573;SDS011;1801;51.050;6.246;2023-05-09T06:46:27;54.40;;;24.20;;
3573;SDS011;1801;51.050;6.246;2023-05-09T06:48:52;55.50;;;23.87;;
3573;SDS011;1801;51.050;6.246;2023-05-09T06:51:17;55.80;;;23.43;;
3573;SDS011;1801;51.050;6.246;2023-05-09T06:53:43;50.73;;;22.00;;
3573;SDS011;1801;51.050;6.246;2023-05-09T06:56:08;44.37;;;21.57;;
3573;SDS011;1801;51.050;6.246;2023-05-09T06:58:33;53.93;;;22.10;;
3573;SDS011;1801;51.050;6.246;2023-05-09T07:00:58;43.77;;;20.50;;
3573;SDS011;1801;51.050;6.246;2023-05-09T07:03:24;41.77;;;20.90;;
3573;SDS011;1801;51.050;6.246;2023-05-09T07:05:50;43.73;;;20.50;;
3573;SDS011;1801;51.050;6.246;2023-05-09T07:08:16;36.17;;;18.47;;
3573;SDS011;1801;51.050;6.246;2023-05-09T07:10:41;38.87;;;17.77;;
3573;SDS011;1801;51.050;6.246;2023-05-09T07:13:06;39.43;;;18.50;;
3573;SDS011;1801;51.050;6.246;2023-05-09T07:15:31;42.10;;;18.37;;
3573;SDS011;1801;51.050;6.246;2023-05-09T07:17:57;36.33;;;17.50;;
3573;SDS011;1801;51.050;6.246;2023-05-09T07:20:22;40.43;;;18.73;;
3573;SDS011;1801;51.050;6.246;2023-05-09T07:22:47;40.07;;;18.93;;
3573;SDS011;1801;51.050;6.246;2023-05-09T07:25:12;36.03;;;18.23;;
3573;SDS011;1801;51.050;6.246;2023-05-09T07:27:37;43.13;;;19.60;;
3573;SDS011;1801;51.050;6.246;2023-05-09T07:30:03;41.93;;;19.03;;
3573;SDS011;1801;51.050;6.246;2023-05-09T07:32:29;35.10;;;18.93;;
3573;SDS011;1801;51.050;6.246;2023-05-09T07:34:54;42.93;;;19.80;;
3573;SDS011;1801;51.050;6.246;2023-05-09T07:37:19;37.30;;;17.87;;
3573;SDS011;1801;51.050;6.246;2023-05-09T07:39:44;35.00;;;16.23;;
3573;SDS011;1801;51.050;6.246;2023-05-09T07:42:11;34.33;;;16.83;;
3573;SDS011;1801;51.050;6.246;2023-05-09T07:44:36;31.73;;;16.83;;
3573;SDS011;1801;51.050;6.246;2023-05-09T07:47:01;31.40;;;17.07;;
3573;SDS011;1801;51.050;6.246;2023-05-09T07:49:26;26.83;;;15.00;;
3573;SDS011;1801;51.050;6.246;2023-05-09T07:51:52;32.57;;;15.17;;
3573;SDS011;1801;51.050;6.246;2023-05-09T07:54:17;29.80;;;15.87;;
3573;SDS011;1801;51.050;6.246;2023-05-09T07:56:42;27.33;;;14.80;;
3573;SDS011;1801;51.050;6.246;2023-05-09T07:59:07;28.33;;;14.83;;
3573;SDS011;1801;51.050;6.246;2023-05-09T08:01:33;30.87;;;15.40;;
3573;SDS011;1801;51.050;6.246;2023-05-09T08:03:58;30.83;;;15.37;;
3573;SDS011;1801;51.050;6.246;2023-05-09T08:06:24;29.37;;;17.97;;
3573;SDS011;1801;51.050;6.246;2023-05-09T08:08:50;28.90;;;13.50;;
3573;SDS011;1801;51.050;6.246;2023-05-09T08:11:15;17.20;;;10.80;;
3573;SDS011;1801;51.050;6.246;2023-05-09T08:13:40;21.87;;;11.53;;
3573;SDS011;1801;51.050;6.246;2023-05-09T08:16:05;20.03;;;11.97;;
3573;SDS011;1801;51.050;6.246;2023-05-09T08:18:31;21.80;;;10.80;;
3573;SDS011;1801;51.050;6.246;2023-05-09T08:20:56;16.53;;;9.90;;
3573;SDS011;1801;51.050;6.246;2023-05-09T08:23:23;17.67;;;9.80;;
3573;SDS011;1801;51.050;6.246;2023-05-09T08:25:51;21.87;;;10.03;;
3573;SDS011;1801;51.050;6.246;2023-05-09T08:28:16;18.40;;;10.37;;
3573;SDS011;1801;51.050;6.246;2023-05-09T08:30:42;16.97;;;10.27;;
3573;SDS011;1801;51.050;6.246;2023-05-09T08:33:07;15.00;;;9.47;;
3573;SDS011;1801;51.050;6.246;2023-05-09T08:35:32;17.23;;;9.60;;
3573;SDS011;1801;51.050;6.246;2023-05-09T08:37:57;26.47;;;11.60;;
3573;SDS011;1801;51.050;6.246;2023-05-09T08:40:23;19.67;;;10.90;;
3573;SDS011;1801;51.050;6.246;2023-05-09T08:42:48;11.80;;;8.30;;
3573;SDS011;1801;51.050;6.246;2023-05-09T08:45:14;14.00;;;7.90;;
3573;SDS011;1801;51.050;6.246;2023-05-09T08:47:40;9.80;;;7.10;;
3573;SDS011;1801;51.050;6.246;2023-05-09T08:50:06;11.93;;;7.47;;
3573;SDS011;1801;51.050;6.246;2023-05-09T08:52:32;11.73;;;7.07;;
3573;SDS011;1801;51.050;6.246;2023-05-09T08:54:57;11.20;;;6.40;;
3573;SDS011;1801;51.050;6.246;2023-05-09T08:57:23;9.83;;;6.37;;
3573;SDS011;1801;51.050;6.246;2023-05-09T08:59:48;8.77;;;6.20;;
3573;SDS011;1801;51.050;6.246;2023-05-09T09:02:13;10.80;;;5.77;;
3573;SDS011;1801;51.050;6.246;2023-05-09T09:04:38;11.07;;;6.50;;
3573;SDS011;1801;51.050;6.246;2023-05-09T09:07:04;12.80;;;6.23;;
3573;SDS011;1801;51.050;6.246;2023-05-09T09:09:30;8.23;;;6.03;;
3573;SDS011;1801;51.050;6.246;2023-05-09T09:11:56;8.13;;;5.80;;
3573;SDS011;1801;51.050;6.246;2023-05-09T09:14:22;9.33;;;6.37;;
3573;SDS011;1801;51.050;6.246;2023-05-09T09:16:49;7.13;;;5.03;;
3573;SDS011;1801;51.050;6.246;2023-05-09T09:19:16;6.83;;;5.67;;
3573;SDS011;1801;51.050;6.246;2023-05-09T09:21:41;14.63;;;5.47;;
3573;SDS011;1801;51.050;6.246;2023-05-09T09:24:08;6.80;;;5.53;;
3573;SDS011;1801;51.050;6.246;2023-05-09T09:26:42;7.43;;;5.17;;
3573;SDS011;1801;51.050;6.246;2023-05-09T09:29:09;7.00;;;5.77;;
3573;SDS011;1801;51.050;6.246;2023-05-09T09:31:34;9.83;;;5.67;;
3573;SDS011;1801;51.050;6.246;2023-05-09T09:34:00;7.00;;;5.43;;
3573;SDS011;1801;51.050;6.246;2023-05-09T09:36:26;8.53;;;5.73;;
3573;SDS011;1801;51.050;6.246;2023-05-09T09:38:55;9.10;;;5.60;;
3573;SDS011;1801;51.050;6.246;2023-05-09T09:41:20;6.43;;;4.17;;
3573;SDS011;1801;51.050;6.246;2023-05-09T09:43:45;8.63;;;4.83;;
3573;SDS011;1801;51.050;6.246;2023-05-09T09:46:12;9.70;;;5.90;;
3573;SDS011;1801;51.050;6.246;2023-05-09T09:48:37;12.20;;;5.80;;
3573;SDS011;1801;51.050;6.246;2023-05-09T09:51:07;8.17;;;5.27;;
3573;SDS011;1801;51.050;6.246;2023-05-09T09:53:37;8.20;;;5.23;;
3573;SDS011;1801;51.050;6.246;2023-05-09T09:56:03;11.80;;;5.33;;
3573;SDS011;1801;51.050;6.246;2023-05-09T09:58:28;7.30;;;5.40;;
3573;SDS011;1801;51.050;6.246;2023-05-09T10:01:09;6.27;;;5.20;;
3573;SDS011;1801;51.050;6.246;2023-05-09T10:03:44;5.13;;;4.63;;
3573;SDS011;1801;51.050;6.246;2023-05-09T10:06:13;6.73;;;5.40;;
3573;SDS011;1801;51.050;6.246;2023-05-09T10:08:39;7.20;;;5.57;;
3573;SDS011;1801;51.050;6.246;2023-05-09T10:11:04;10.63;;;4.93;;
3573;SDS011;1801;51.050;6.246;2023-05-09T10:13:30;8.87;;;5.00;;
3573;SDS011;1801;51.050;6.246;2023-05-09T10:15:58;9.70;;;4.50;;
3573;SDS011;1801;51.050;6.246;2023-05-09T10:18:25;8.50;;;5.80;;
3573;SDS011;1801;51.050;6.246;2023-05-09T10:20:51;6.63;;;4.67;;
3573;SDS011;1801;51.050;6.246;2023-05-09T10:23:17;10.10;;;5.73;;
3573;SDS011;1801;51.050;6.246;2023-05-09T10:25:43;6.83;;;4.60;;
3573;SDS011;1801;51.050;6.246;2023-05-09T10:28:11;10.73;;;5.80;;
3573;SDS011;1801;51.050;6.246;2023-05-09T10:33:22;6.90;;;5.17;;
3573;SDS011;1801;51.050;6.246;2023-05-09T10:35:50;10.00;;;5.33;;
3573;SDS011;1801;51.050;6.246;2023-05-09T10:38:15;9.67;;;6.10;;
3573;SDS011;1801;51.050;6.246;2023-05-09T10:40:42;10.47;;;6.10;;
3573;SDS011;1801;51.050;6.246;2023-05-09T10:43:07;8.07;;;5.70;;
3573;SDS011;1801;51.050;6.246;2023-05-09T10:45:33;8.00;;;5.93;;
3573;SDS011;1801;51.050;6.246;2023-05-09T10:47:58;6.73;;;5.20;;
3573;SDS011;1801;51.050;6.246;2023-05-09T10:50:25;7.60;;;5.40;;
3573;SDS011;1801;51.050;6.246;2023-05-09T10:55:35;8.47;;;5.67;;
3573;SDS011;1801;51.050;6.246;2023-05-09T10:58:00;11.30;;;6.57;;
3573;SDS011;1801;51.050;6.246;2023-05-09T11:00:31;11.67;;;7.47;;
3573;SDS011;1801;51.050;6.246;2023-05-09T11:03:05;10.43;;;6.80;;
3573;SDS011;1801;51.050;6.246;2023-05-09T11:05:40;11.47;;;6.90;;
3573;SDS011;1801;51.050;6.246;2023-05-09T11:10:42;9.23;;;7.27;;
3573;SDS011;1801;51.050;6.246;2023-05-09T11:13:08;12.00;;;7.07;;
3573;SDS011;1801;51.050;6.246;2023-05-09T11:15:33;16.87;;;7.90;;
3573;SDS011;1801;51.050;6.246;2023-05-09T11:18:05;13.50;;;6.20;;
3573;SDS011;1801;51.050;6.246;2023-05-09T11:20:32;10.30;;;6.20;;
3573;SDS011;1801;51.050;6.246;2023-05-09T11:22:57;10.87;;;7.20;;
3573;SDS011;1801;51.050;6.246;2023-05-09T11:25:25;13.03;;;8.13;;
3573;SDS011;1801;51.050;6.246;2023-05-09T11:27:56;10.90;;;6.50;;
3573;SDS011;1801;51.050;6.246;2023-05-09T11:30:21;8.10;;;7.03;;
3573;SDS011;1801;51.050;6.246;2023-05-09T11:32:50;12.03;;;8.10;;
3573;SDS011;1801;51.050;6.246;2023-05-09T11:35:18;12.07;;;7.50;;
3573;SDS011;1801;51.050;6.246;2023-05-09T11:37:44;12.30;;;8.67;;
3573;SDS011;1801;51.050;6.246;2023-05-09T11:40:11;13.43;;;9.00;;
3573;SDS011;1801;51.050;6.246;2023-05-09T11:42:36;13.63;;;8.03;;
3573;SDS011;1801;51.050;6.246;2023-05-09T11:45:05;15.07;;;10.10;;
3573;SDS011;1801;51.050;6.246;2023-05-09T11:47:31;14.30;;;9.73;;
3573;SDS011;1801;51.050;6.246;2023-05-09T11:49:56;14.10;;;9.00;;
3573;SDS011;1801;51.050;6.246;2023-05-09T11:52:21;18.17;;;10.20;;
3573;SDS011;1801;51.050;6.246;2023-05-09T11:54:46;13.53;;;9.57;;
3573;SDS011;1801;51.050;6.246;2023-05-09T11:57:13;19.07;;;10.80;;
3573;SDS011;1801;51.050;6.246;2023-05-09T11:59:41;19.93;;;10.83;;
3573;SDS011;1801;51.050;6.246;2023-05-09T12:02:07;27.00;;;12.00;;
3573;SDS011;1801;51.050;6.246;2023-05-09T12:04:32;16.00;;;10.87;;
3573;SDS011;1801;51.050;6.246;2023-05-09T12:06:58;25.77;;;10.97;;
3573;SDS011;1801;51.050;6.246;2023-05-09T12:09:24;14.63;;;10.27;;
3573;SDS011;1801;51.050;6.246;2023-05-09T12:11:51;14.97;;;10.77;;
3573;SDS011;1801;51.050;6.246;2023-05-09T12:14:29;20.40;;;10.00;;
3573;SDS011;1801;51.050;6.246;2023-05-09T12:16:54;12.30;;;8.17;;
3573;SDS011;1801;51.050;6.246;2023-05-09T12:19:20;10.17;;;8.60;;
3573;SDS011;1801;51.050;6.246;2023-05-09T12:21:46;12.03;;;8.90;;
3573;SDS011;1801;51.050;6.246;2023-05-09T12:24:11;12.20;;;8.70;;
3573;SDS011;1801;51.050;6.246;2023-05-09T12:26:37;10.40;;;7.47;;
3573;SDS011;1801;51.050;6.246;2023-05-09T12:29:02;11.53;;;8.40;;
3573;SDS011;1801;51.050;6.246;2023-05-09T12:31:28;14.17;;;8.00;;
3573;SDS011;1801;51.050;6.246;2023-05-09T12:33:53;10.93;;;7.90;;
3573;SDS011;1801;51.050;6.246;2023-05-09T12:36:19;12.70;;;8.07;;
3573;SDS011;1801;51.050;6.246;2023-05-09T12:38:53;13.60;;;7.63;;
3573;SDS011;1801;51.050;6.246;2023-05-09T12:41:19;12.33;;;8.37;;
3573;SDS011;1801;51.050;6.246;2023-05-09T12:43:46;14.53;;;9.03;;
3573;SDS011;1801;51.050;6.246;2023-05-09T12:46:12;13.23;;;8.73;;
3573;SDS011;1801;51.050;6.246;2023-05-09T12:48:42;15.90;;;7.37;;
3573;SDS011;1801;51.050;6.246;2023-05-09T12:51:07;14.67;;;7.73;;
3573;SDS011;1801;51.050;6.246;2023-05-09T12:53:36;14.37;;;7.87;;
3573;SDS011;1801;51.050;6.246;2023-05-09T12:56:02;12.67;;;8.67;;
3573;SDS011;1801;51.050;6.246;2023-05-09T12:58:31;11.57;;;7.97;;
3573;SDS011;1801;51.050;6.246;2023-05-09T13:00:56;8.30;;;4.37;;
3573;SDS011;1801;51.050;6.246;2023-05-09T13:03:23;7.47;;;5.10;;
3573;SDS011;1801;51.050;6.246;2023-05-09T13:05:55;6.37;;;4.33;;
3573;SDS011;1801;51.050;6.246;2023-05-09T13:08:21;8.50;;;5.53;;
3573;SDS011;1801;51.050;6.246;2023-05-09T13:10:46;10.13;;;5.30;;
3573;SDS011;1801;51.050;6.246;2023-05-09T13:13:18;8.00;;;4.80;;
3573;SDS011;1801;51.050;6.246;2023-05-09T13:15:44;5.37;;;3.90;;
3573;SDS011;1801;51.050;6.246;2023-05-09T13:18:09;5.63;;;3.40;;
3573;SDS011;1801;51.050;6.246;2023-05-09T13:20:34;7.03;;;3.97;;
3573;SDS011;1801;51.050;6.246;2023-05-09T13:23:00;5.77;;;4.20;;
3573;SDS011;1801;51.050;6.246;2023-05-09T13:25:25;5.97;;;4.40;;
3573;SDS011;1801;51.050;6.246;2023-05-09T13:27:50;7.20;;;5.10;;
3573;SDS011;1801;51.050;6.246;2023-05-09T13:30:16;9.83;;;6.07;;
3573;SDS011;1801;51.050;6.246;2023-05-09T13:32:41;9.50;;;7.50;;
3573;SDS011;1801;51.050;6.246;2023-05-09T13:35:06;11.40;;;7.13;;
3573;SDS011;1801;51.050;6.246;2023-05-09T13:37:32;9.57;;;6.47;;
3573;SDS011;1801;51.050;6.246;2023-05-09T13:39:57;8.70;;;5.67;;
3573;SDS011;1801;51.050;6.246;2023-05-09T13:42:22;11.13;;;7.67;;
3573;SDS011;1801;51.050;6.246;2023-05-09T13:44:48;10.70;;;6.47;;
3573;SDS011;1801;51.050;6.246;2023-05-09T13:47:13;13.43;;;6.10;;
3573;SDS011;1801;51.050;6.246;2023-05-09T13:49:38;12.33;;;6.50;;
3573;SDS011;1801;51.050;6.246;2023-05-09T13:52:03;9.00;;;6.30;;
3573;SDS011;1801;51.050;6.246;2023-05-09T13:54:29;10.40;;;6.67;;
3573;SDS011;1801;51.050;6.246;2023-05-09T13:56:59;12.40;;;6.83;;
3573;SDS011;1801;51.050;6.246;2023-05-09T13:59:25;8.67;;;6.30;;
3573;SDS011;1801;51.050;6.246;2023-05-09T14:01:50;9.63;;;6.20;;
3573;SDS011;1801;51.050;6.246;2023-05-09T14:04:15;9.83;;;7.60;;
3573;SDS011;1801;51.050;6.246;2023-05-09T14:06:40;7.97;;;5.27;;
3573;SDS011;1801;51.050;6.246;2023-05-09T14:09:12;7.87;;;5.57;;
3573;SDS011;1801;51.050;6.246;2023-05-09T14:11:37;8.30;;;5.50;;
3573;SDS011;1801;51.050;6.246;2023-05-09T14:14:02;6.10;;;5.50;;
3573;SDS011;1801;51.050;6.246;2023-05-09T14:16:27;7.00;;;5.23;;
3573;SDS011;1801;51.050;6.246;2023-05-09T14:18:52;10.90;;;6.03;;
3573;SDS011;1801;51.050;6.246;2023-05-09T14:21:18;9.30;;;6.10;;
3573;SDS011;1801;51.050;6.246;2023-05-09T14:23:43;9.13;;;5.43;;
3573;SDS011;1801;51.050;6.246;2023-05-09T14:26:08;9.43;;;5.40;;
3573;SDS011;1801;51.050;6.246;2023-05-09T14:28:34;9.80;;;5.60;;
3573;SDS011;1801;51.050;6.246;2023-05-09T14:31:01;6.80;;;5.13;;
3573;SDS011;1801;51.050;6.246;2023-05-09T14:33:27;10.90;;;5.13;;
3573;SDS011;1801;51.050;6.246;2023-05-09T14:35:53;9.07;;;5.97;;
3573;SDS011;1801;51.050;6.246;2023-05-09T14:38:18;8.87;;;6.07;;
3573;SDS011;1801;51.050;6.246;2023-05-09T14:40:43;7.20;;;4.87;;
3573;SDS011;1801;51.050;6.246;2023-05-09T14:43:09;9.10;;;6.20;;
3573;SDS011;1801;51.050;6.246;2023-05-09T14:45:34;9.43;;;5.17;;
3573;SDS011;1801;51.050;6.246;2023-05-09T14:47:59;7.50;;;4.60;;
3573;SDS011;1801;51.050;6.246;2023-05-09T14:50:25;7.80;;;5.60;;
3573;SDS011;1801;51.050;6.246;2023-05-09T14:52:50;9.93;;;4.63;;
3573;SDS011;1801;51.050;6.246;2023-05-09T14:55:16;4.90;;;3.47;;
3573;SDS011;1801;51.050;6.246;2023-05-09T14:57:42;10.13;;;4.20;;
3573;SDS011;1801;51.050;6.246;2023-05-09T15:00:07;6.33;;;3.93;;
3573;SDS011;1801;51.050;6.246;2023-05-09T15:02:33;6.90;;;3.73;;
3573;SDS011;1801;51.050;6.246;2023-05-09T15:04:59;5.13;;;3.50;;
3573;SDS011;1801;51.050;6.246;2023-05-09T15:07:24;13.47;;;4.27;;
3573;SDS011;1801;51.050;6.246;2023-05-09T15:09:49;10.23;;;5.53;;
3573;SDS011;1801;51.050;6.246;2023-05-09T15:12:15;7.50;;;3.67;;
3573;SDS011;1801;51.050;6.246;2023-05-09T15:14:40;6.57;;;4.33;;